This is the latest recevied weather packets stored in our database for station/object N6SPP. If no packets are shown the sender has not sent any weather packets the latest 10 day(s).
| Time | Temp. | Humidity | Pressure | Rain* | Wind** | Luminosity | Snow |
|---|---|---|---|---|---|---|---|
| 1777666484 | 25.56° C | 47% | 1015.6 hPa | 0 mm | - | 693 W/m² | - |
| 1777666181 | 26.67° C | 45% | 1015.4 hPa | 0 mm | - | 696 W/m² | - |
| 1777665878 | 25.56° C | 45% | 1015.4 hPa | 0 mm | - | 693 W/m² | - |
| 1777665575 | 25° C | 46% | 1015.4 hPa | 0 mm | - | 692 W/m² | - |
| 1777665272 | 25° C | 47% | 1015.5 hPa | 0 mm | - | 734 W/m² | - |
| 1777664967 | 25.56° C | 46% | 1015.5 hPa | 0 mm | - | 762 W/m² | - |
| 1777664663 | 25.56° C | 44% | 1015.7 hPa | 0 mm | - | 773 W/m² | - |
| 1777664359 | 25° C | 46% | 1015.7 hPa | 0 mm | - | 777 W/m² | - |
| 1777664058 | 24.44° C | 48% | 1015.8 hPa | 0 mm | - | 752 W/m² | - |
| 1777663755 | 24.44° C | 49% | 1015.9 hPa | 0 mm | - | 712 W/m² | - |
| 1777663452 | 24.44° C | 50% | 1015.9 hPa | 0 mm | - | 766 W/m² | - |
| 1777663149 | 23.89° C | 49% | 1015.9 hPa | 0 mm | - | 731 W/m² | - |
| 1777662847 | 23.89° C | 48% | 1016 hPa | 0 mm | - | 719 W/m² | - |
| 1777662544 | 24.44° C | 49% | 1015.9 hPa | 0 mm | - | 716 W/m² | - |
| 1777662239 | 23.89° C | 48% | 1016.1 hPa | 0 mm | - | 736 W/m² | - |
| 1777661935 | 24.44° C | 48% | 1016.2 hPa | 0 mm | - | 762 W/m² | - |
| 1777661631 | 24.44° C | 48% | 1016.1 hPa | 0 mm | - | 708 W/m² | - |
| 1777661327 | 25° C | 47% | 1016.2 hPa | 0 mm | - | 686 W/m² | - |
| 1777661023 | 25° C | 46% | 1016.2 hPa | 0 mm | - | 506 W/m² | - |
| 1777660718 | 23.89° C | 50% | 1016.2 hPa | 0 mm | - | 749 W/m² | - |
| 1777660416 | 22.78° C | 52% | 1016.2 hPa | 0 mm | - | 744 W/m² | - |
| 1777660112 | 23.33° C | 50% | 1016.4 hPa | 0 mm | - | 681 W/m² | - |
| 1777659809 | 23.89° C | 49% | 1016.3 hPa | 0 mm | - | 714 W/m² | - |
| 1777659506 | 22.78° C | 52% | 1016.4 hPa | 0 mm | - | 712 W/m² | - |
| 1777659203 | 22.78° C | 51% | 1016.4 hPa | 0 mm | - | 687 W/m² | - |
* Rain latest hour (hover to see other rain measurements)
** Current wind speed in m/s (hover to see current wind gust speed)